createdAt,value
2023-04-19T00:02:10.283Z,38.05
2023-04-19T00:04:56.442Z,26.50
2023-04-19T00:07:41.875Z,24.88
2023-04-19T00:10:27.383Z,34.03
2023-04-19T00:13:12.988Z,25.75
2023-04-19T00:15:58.288Z,34.08
2023-04-19T00:18:43.554Z,26.90
2023-04-19T00:21:28.873Z,26.85
2023-04-19T00:24:14.737Z,32.17
2023-04-19T00:27:00.639Z,25.70
2023-04-19T00:29:46.509Z,30.58
2023-04-19T00:32:32.037Z,25.40
2023-04-19T00:35:17.323Z,35.63
2023-04-19T00:38:02.936Z,25.98
2023-04-19T00:40:48.023Z,32.40
2023-04-19T00:43:33.418Z,28.55
2023-04-19T00:46:19.244Z,30.42
2023-04-19T00:49:04.692Z,27.88
2023-04-19T00:51:51.888Z,26.27
2023-04-19T00:54:37.838Z,34.63
2023-04-19T00:57:23.645Z,30.23
2023-04-19T01:00:10.285Z,32.00
2023-04-19T01:02:56.322Z,26.70
2023-04-19T01:05:41.966Z,25.08
2023-04-19T01:08:31.285Z,30.55
2023-04-19T01:11:16.542Z,22.85
2023-04-19T01:14:04.030Z,24.02
2023-04-19T01:16:50.673Z,25.70
2023-04-19T01:19:36.893Z,25.00
2023-04-19T01:22:23.126Z,24.77
2023-04-19T01:25:08.875Z,24.02
2023-04-19T01:27:54.184Z,28.23
2023-04-19T01:30:42.902Z,29.75
2023-04-19T01:33:28.399Z,26.33
2023-04-19T01:36:13.916Z,29.67
2023-04-19T01:39:00.499Z,25.55
2023-04-19T01:41:45.946Z,26.48
2023-04-19T01:44:31.622Z,26.13
2023-04-19T01:47:18.897Z,27.60
2023-04-19T01:50:04.380Z,35.25
2023-04-19T01:52:49.910Z,25.00
2023-04-19T01:55:35.374Z,24.10
2023-04-19T01:58:21.864Z,27.73
2023-04-19T02:01:07.351Z,25.63
2023-04-19T02:03:53.205Z,22.20
2023-04-19T02:06:39.042Z,22.75
2023-04-19T02:09:24.589Z,23.00
2023-04-19T02:12:10.278Z,23.75
2023-04-19T02:14:59.579Z,24.60
2023-04-19T02:17:53.732Z,27.40
2023-04-19T02:20:39.791Z,23.90
2023-04-19T02:23:25.448Z,21.75
2023-04-19T02:26:11.496Z,24.27
2023-04-19T02:28:57.145Z,23.45
2023-04-19T02:31:42.699Z,23.17
2023-04-19T02:34:28.363Z,23.25
2023-04-19T02:37:13.755Z,23.00
2023-04-19T02:39:59.047Z,24.05
2023-04-19T02:42:46.443Z,23.83
2023-04-19T02:45:31.843Z,20.30
2023-04-19T02:48:17.245Z,23.10
2023-04-19T02:51:02.593Z,21.88
2023-04-19T02:53:52.234Z,19.15
2023-04-19T02:56:38.316Z,20.10
2023-04-19T02:59:24.231Z,22.45
2023-04-19T03:02:10.922Z,23.30
2023-04-19T03:04:56.822Z,21.08
2023-04-19T03:07:44.441Z,19.90
2023-04-19T03:10:30.867Z,21.40
2023-04-19T03:13:16.260Z,19.75
2023-04-19T03:16:01.724Z,24.58
2023-04-19T03:18:50.036Z,22.80
2023-04-19T03:21:39.520Z,19.77
2023-04-19T03:24:31.946Z,23.15
2023-04-19T03:27:25.888Z,24.63
2023-04-19T03:30:18.138Z,24.45
2023-04-19T03:33:03.876Z,20.77
2023-04-19T03:35:50.169Z,23.05
2023-04-19T03:38:37.069Z,22.60
2023-04-19T03:41:26.053Z,24.05
2023-04-19T03:44:40.501Z,19.17
2023-04-19T03:47:27.940Z,22.15
2023-04-19T03:50:16.305Z,23.80
2023-04-19T03:53:06.001Z,27.42
2023-04-19T03:55:51.680Z,23.52
2023-04-19T03:58:37.778Z,23.08
2023-04-19T04:01:26.763Z,22.60
2023-04-19T04:04:14.437Z,26.45
2023-04-19T04:07:00.256Z,22.33
2023-04-19T04:09:47.640Z,20.92
2023-04-19T04:12:32.997Z,25.35
2023-04-19T04:15:20.462Z,24.42
2023-04-19T04:18:11.319Z,27.67
2023-04-19T04:20:57.373Z,27.70
2023-04-19T04:23:43.124Z,27.10
2023-04-19T04:26:35.668Z,23.33
2023-04-19T04:29:39.660Z,27.38
2023-04-19T04:32:26.610Z,26.55
2023-04-19T04:35:17.851Z,26.92
2023-04-19T04:38:21.387Z,26.58
2023-04-19T04:41:12.084Z,28.85
2023-04-19T04:44:12.136Z,27.67
2023-04-19T04:47:19.965Z,30.23
2023-04-19T04:50:11.810Z,28.98
2023-04-19T04:52:57.794Z,26.45
2023-04-19T04:55:48.735Z,25.05
2023-04-19T04:58:34.272Z,23.25
2023-04-19T05:01:26.884Z,25.42
2023-04-19T05:04:19.044Z,25.48
2023-04-19T05:07:04.564Z,24.90
2023-04-19T05:09:50.971Z,28.13
2023-04-19T05:12:42.710Z,23.88
2023-04-19T05:15:28.574Z,20.08
2023-04-19T05:18:14.880Z,25.23
2023-04-19T05:21:01.279Z,26.63
2023-04-19T05:23:53.500Z,22.25
2023-04-19T05:26:39.692Z,21.13
2023-04-19T05:29:27.233Z,21.27
2023-04-19T05:32:13.913Z,22.17
2023-04-19T05:35:04.687Z,23.25
2023-04-19T05:37:50.288Z,29.95
2023-04-19T05:40:36.007Z,23.30
2023-04-19T05:43:21.932Z,24.13
2023-04-19T05:46:07.326Z,29.38
2023-04-19T05:48:54.082Z,23.90
2023-04-19T05:51:45.493Z,26.08
2023-04-19T05:54:40.843Z,25.40
2023-04-19T05:57:26.610Z,25.23
2023-04-19T06:00:12.699Z,26.98
2023-04-19T06:03:14.288Z,23.95
2023-04-19T06:06:00.585Z,24.98
2023-04-19T06:08:46.252Z,27.50
2023-04-19T06:11:38.790Z,25.35
2023-04-19T06:14:32.983Z,23.73
2023-04-19T06:17:23.480Z,23.33
2023-04-19T06:20:10.184Z,26.45
2023-04-19T06:22:55.749Z,23.40
2023-04-19T06:25:41.428Z,24.23
2023-04-19T06:28:26.762Z,21.20
2023-04-19T06:31:12.442Z,26.58
2023-04-19T06:33:57.983Z,22.95
2023-04-19T06:36:43.088Z,20.95
2023-04-19T06:39:28.703Z,22.17
2023-04-19T06:42:14.503Z,19.48
2023-04-19T06:44:59.883Z,20.25
2023-04-19T06:47:45.092Z,18.70
2023-04-19T06:50:30.862Z,20.15
2023-04-19T06:53:16.646Z,20.58
2023-04-19T06:56:03.394Z,22.65
2023-04-19T06:58:48.973Z,20.35
2023-04-19T07:01:34.301Z,19.77
2023-04-19T07:04:20.508Z,23.40
2023-04-19T07:07:06.275Z,27.77
2023-04-19T07:09:51.958Z,24.85
2023-04-19T07:12:37.915Z,25.88
2023-04-19T07:15:23.404Z,24.60
2023-04-19T07:18:10.421Z,21.10
2023-04-19T07:20:56.047Z,23.15
2023-04-19T07:23:41.480Z,21.02
2023-04-19T07:26:27.195Z,19.15
2023-04-19T07:29:14.230Z,24.23
2023-04-19T07:32:01.769Z,20.33
2023-04-19T07:34:47.171Z,21.67
2023-04-19T07:37:33.005Z,21.27
2023-04-19T07:40:18.416Z,23.10
2023-04-19T07:43:03.902Z,23.27
2023-04-19T07:45:49.166Z,20.92
2023-04-19T07:48:34.507Z,25.20
2023-04-19T07:51:19.721Z,22.55
2023-04-19T07:54:05.026Z,21.20
2023-04-19T07:56:50.219Z,20.85
2023-04-19T07:59:35.491Z,20.85
2023-04-19T08:02:21.394Z,22.60
2023-04-19T08:05:09.361Z,20.33
2023-04-19T08:07:55.029Z,18.73
2023-04-19T08:10:41.029Z,21.67
2023-04-19T08:13:26.455Z,14.00
2023-04-19T08:19:00.214Z,21.60
2023-04-19T08:21:45.769Z,23.60
2023-04-19T08:24:31.426Z,26.77
2023-04-19T08:27:16.617Z,21.58
2023-04-19T08:30:01.954Z,21.55
2023-04-19T08:32:47.509Z,23.70
2023-04-19T08:35:36.194Z,22.20
2023-04-19T08:38:21.695Z,19.20
2023-04-19T08:41:07.093Z,18.00
2023-04-19T08:43:54.025Z,20.58
2023-04-19T08:46:39.865Z,14.45
2023-04-19T08:49:26.098Z,18.83
2023-04-19T08:52:13.336Z,17.20
2023-04-19T08:55:04.590Z,19.48
2023-04-19T08:57:49.865Z,19.50
2023-04-19T09:00:38.601Z,16.85
2023-04-19T09:03:24.826Z,17.60
2023-04-19T09:06:12.086Z,17.02
2023-04-19T09:12:17.938Z,14.18
2023-04-19T09:15:05.273Z,15.43
2023-04-19T09:18:05.420Z,14.18
2023-04-19T09:20:57.071Z,16.10
2023-04-19T09:23:47.053Z,13.68
2023-04-19T09:26:33.127Z,14.32
2023-04-19T09:29:19.170Z,13.18
2023-04-19T09:32:05.135Z,11.80
2023-04-19T09:34:59.134Z,8.55
2023-04-19T09:38:05.699Z,9.50
2023-04-19T09:40:52.827Z,6.75
2023-04-19T09:43:58.840Z,10.85
2023-04-19T09:46:45.665Z,9.63
2023-04-19T09:52:22.904Z,8.75
2023-04-19T09:55:17.735Z,8.23
2023-04-19T09:58:08.187Z,10.50
2023-04-19T10:01:02.866Z,8.25
2023-04-19T10:04:01.196Z,8.48
2023-04-19T10:07:19.329Z,9.55
2023-04-19T10:13:11.488Z,7.72
2023-04-19T10:16:04.868Z,8.57
2023-04-19T10:19:10.068Z,7.75
2023-04-19T10:21:56.648Z,9.32
2023-04-19T10:25:08.623Z,10.75
2023-04-19T10:27:54.213Z,8.70
2023-04-19T10:30:58.551Z,10.68
2023-04-19T10:33:43.834Z,6.18
2023-04-19T10:36:29.366Z,8.18
2023-04-19T10:39:40.348Z,7.78
2023-04-19T10:42:25.653Z,7.13
2023-04-19T10:45:33.821Z,8.52
2023-04-19T10:48:33.368Z,8.63
2023-04-19T10:51:23.171Z,9.30
2023-04-19T10:54:27.522Z,7.70
2023-04-19T10:57:13.164Z,7.68
2023-04-19T11:00:18.150Z,8.95
2023-04-19T11:03:51.383Z,7.93
2023-04-19T11:06:38.420Z,8.88
2023-04-19T11:09:39.093Z,8.20
2023-04-19T11:12:24.876Z,6.65
2023-04-19T11:15:12.032Z,10.23
2023-04-19T11:18:11.842Z,7.43
2023-04-19T11:20:58.293Z,9.48
2023-04-19T11:23:43.791Z,10.38
2023-04-19T11:26:29.401Z,6.55
2023-04-19T11:29:15.117Z,12.13
2023-04-19T11:32:00.827Z,8.88
2023-04-19T11:34:46.607Z,10.10
2023-04-19T11:37:36.482Z,9.60
2023-04-19T11:40:24.053Z,9.95
2023-04-19T11:43:09.853Z,10.32
2023-04-19T11:45:55.141Z,8.18
2023-04-19T11:48:54.711Z,10.63
2023-04-19T11:51:43.590Z,7.85
2023-04-19T11:54:29.107Z,9.20
2023-04-19T11:57:14.503Z,9.07
2023-04-19T12:00:12.280Z,9.57
2023-04-19T12:02:59.599Z,10.98
2023-04-19T12:05:55.116Z,9.50
2023-04-19T12:08:47.076Z,8.85
2023-04-19T12:11:43.276Z,11.00
2023-04-19T12:14:30.470Z,13.32
2023-04-19T12:17:16.807Z,11.43
2023-04-19T12:20:02.485Z,8.75
2023-04-19T12:22:47.828Z,18.50
2023-04-19T12:25:34.408Z,16.40
2023-04-19T12:28:19.959Z,10.45
2023-04-19T12:31:06.128Z,10.05
2023-04-19T12:33:51.607Z,19.00
2023-04-19T12:36:36.815Z,13.45
2023-04-19T12:39:22.173Z,7.22
2023-04-19T12:42:07.577Z,12.63
2023-04-19T12:44:53.838Z,13.43
2023-04-19T12:47:43.771Z,15.90
2023-04-19T12:50:29.114Z,12.85
2023-04-19T12:53:14.547Z,17.27
2023-04-19T12:56:00.443Z,13.25
2023-04-19T12:58:46.519Z,23.48
2023-04-19T13:01:32.893Z,10.57
2023-04-19T13:04:18.886Z,7.25
2023-04-19T13:07:05.168Z,14.88
2023-04-19T13:09:50.588Z,13.18
2023-04-19T13:12:36.666Z,15.88
2023-04-19T13:15:22.225Z,12.75
2023-04-19T13:18:07.661Z,16.23
2023-04-19T13:20:54.025Z,15.00
2023-04-19T13:23:39.378Z,12.18
2023-04-19T13:26:25.695Z,14.32
2023-04-19T13:29:11.372Z,17.10
2023-04-19T13:31:56.723Z,18.30
2023-04-19T13:34:43.062Z,126.55
2023-04-19T13:37:28.785Z,19.77
2023-04-19T13:40:19.162Z,16.45
2023-04-19T13:43:05.222Z,23.55
2023-04-19T13:45:50.966Z,24.30
2023-04-19T13:48:36.204Z,21.73
2023-04-19T13:51:21.653Z,20.92
2023-04-19T13:54:07.118Z,14.90
2023-04-19T13:56:52.707Z,17.52
2023-04-19T13:59:39.040Z,15.27
2023-04-19T14:02:24.770Z,16.65
2023-04-19T14:05:10.657Z,19.40
2023-04-19T14:07:56.447Z,14.40
2023-04-19T14:10:41.820Z,15.60
2023-04-19T14:13:27.275Z,20.63
2023-04-19T14:16:12.427Z,19.25
2023-04-19T14:18:58.337Z,28.45
2023-04-19T14:21:43.791Z,21.48
2023-04-19T14:24:29.040Z,28.77
2023-04-19T14:27:14.509Z,33.40
2023-04-19T14:30:00.300Z,19.08
2023-04-19T14:32:47.066Z,18.90
2023-04-19T14:35:36.115Z,22.90
2023-04-19T14:38:24.714Z,21.98
2023-04-19T14:41:11.155Z,16.42
2023-04-19T14:43:57.270Z,19.17
2023-04-19T14:46:42.827Z,21.02
2023-04-19T14:49:28.565Z,18.75
2023-04-19T14:52:13.827Z,18.63
2023-04-19T14:55:00.089Z,19.88
2023-04-19T14:57:45.942Z,26.08
2023-04-19T15:00:31.845Z,19.90
2023-04-19T15:03:21.469Z,20.45
2023-04-19T15:06:08.029Z,22.75
2023-04-19T15:08:53.599Z,23.25
2023-04-19T15:11:38.802Z,24.08
2023-04-19T15:14:24.212Z,19.85
2023-04-19T15:17:09.481Z,28.55
2023-04-19T15:19:54.843Z,25.83
2023-04-19T15:22:40.184Z,30.05
2023-04-19T15:25:26.145Z,23.52
2023-04-19T15:28:11.527Z,31.98
2023-04-19T15:31:02.288Z,35.47
2023-04-19T15:33:48.055Z,32.70
2023-04-19T15:36:34.054Z,37.13
2023-04-19T15:39:19.642Z,22.48
2023-04-19T15:42:05.521Z,25.33
2023-04-19T15:44:50.916Z,20.88
2023-04-19T15:47:36.765Z,29.92
2023-04-19T15:50:22.599Z,35.22
2023-04-19T15:53:08.311Z,45.25
2023-04-19T15:55:55.835Z,32.30
2023-04-19T16:01:27.762Z,27.73
2023-04-19T16:04:13.894Z,34.70
2023-04-19T16:06:59.596Z,30.63
2023-04-19T16:09:44.742Z,24.73
2023-04-19T16:12:30.188Z,30.58
2023-04-19T16:15:15.705Z,39.80
2023-04-19T16:18:01.162Z,37.75
2023-04-19T16:20:47.095Z,35.83
2023-04-19T16:23:32.384Z,35.20
2023-04-19T16:26:17.744Z,34.17
2023-04-19T16:29:03.319Z,31.75
2023-04-19T16:31:51.764Z,31.77
2023-04-19T16:34:37.754Z,36.78
2023-04-19T16:37:23.794Z,32.40
2023-04-19T16:40:10.935Z,44.58
2023-04-19T16:42:57.714Z,38.85
2023-04-19T16:45:43.661Z,45.97
2023-04-19T16:48:28.949Z,41.75
2023-04-19T16:51:14.316Z,32.67
2023-04-19T16:53:59.579Z,34.20
2023-04-19T16:56:44.650Z,31.45
2023-04-19T16:59:30.003Z,30.80
2023-04-19T17:02:16.062Z,41.22
2023-04-19T17:05:01.865Z,36.65
2023-04-19T17:07:47.578Z,37.53
2023-04-19T17:10:32.971Z,27.98
2023-04-19T17:13:18.261Z,44.90
2023-04-19T17:16:03.739Z,34.42
2023-04-19T17:18:49.484Z,61.65
2023-04-19T17:21:35.595Z,68.40
2023-04-19T17:24:21.078Z,74.00
2023-04-19T17:27:14.826Z,69.65
2023-04-19T17:30:07.236Z,61.58
2023-04-19T17:32:53.149Z,50.08
2023-04-19T17:35:38.432Z,60.83
2023-04-19T17:38:23.793Z,38.47
2023-04-19T17:41:15.924Z,35.50
2023-04-19T17:44:01.490Z,33.10
2023-04-19T17:46:46.693Z,33.92
2023-04-19T17:49:32.148Z,33.05
2023-04-19T17:52:17.529Z,27.52
2023-04-19T17:55:04.760Z,26.55
2023-04-19T17:57:52.636Z,33.30
2023-04-19T18:00:38.501Z,31.70
2023-04-19T18:03:24.131Z,41.40
2023-04-19T18:06:10.735Z,34.30
2023-04-19T18:08:56.525Z,41.83
2023-04-19T18:11:42.316Z,43.13
2023-04-19T18:14:28.204Z,40.72
2023-04-19T18:17:13.718Z,102.10
2023-04-19T18:19:59.239Z,37.97
2023-04-19T18:22:45.056Z,35.25
2023-04-19T18:25:30.733Z,34.15
2023-04-19T18:28:16.074Z,45.47
2023-04-19T18:31:01.605Z,34.92
2023-04-19T18:33:46.871Z,54.28
2023-04-19T18:36:32.582Z,54.05
2023-04-19T18:39:19.949Z,47.75
2023-04-19T18:42:05.875Z,49.42
2023-04-19T18:44:54.257Z,46.85
2023-04-19T18:47:40.581Z,37.38
2023-04-19T18:50:26.416Z,43.25
2023-04-19T18:53:12.015Z,83.60
2023-04-19T18:55:57.995Z,46.17
2023-04-19T18:58:43.488Z,32.50
2023-04-19T19:01:30.052Z,41.17
2023-04-19T19:04:42.931Z,41.13
2023-04-19T19:07:36.261Z,37.13
2023-04-19T19:10:34.229Z,55.15
2023-04-19T19:13:28.536Z,44.92
2023-04-19T19:16:13.996Z,75.35
2023-04-19T19:18:59.894Z,35.67
2023-04-19T19:21:47.333Z,35.08
2023-04-19T19:27:18.485Z,43.53
2023-04-19T19:30:05.817Z,43.35
2023-04-19T19:32:51.790Z,43.20
2023-04-19T19:38:24.477Z,39.97
2023-04-19T19:41:55.139Z,53.17
2023-04-19T19:44:16.439Z,36.10
2023-04-19T19:47:10.263Z,49.63
2023-04-19T19:52:48.178Z,70.60
2023-04-19T19:55:34.247Z,69.97
2023-04-19T19:58:42.580Z,50.28
2023-04-19T20:01:27.244Z,39.55
2023-04-19T20:04:17.829Z,43.97
2023-04-19T20:09:52.996Z,45.17
2023-04-19T20:13:00.888Z,45.75
2023-04-19T20:16:02.158Z,54.35
2023-04-19T20:18:49.237Z,51.97
2023-04-19T20:21:35.082Z,54.03
2023-04-19T20:24:23.833Z,57.75
2023-04-19T20:27:09.640Z,40.30
2023-04-19T20:29:56.900Z,58.28
2023-04-19T20:32:43.456Z,49.08
2023-04-19T20:35:36.617Z,45.53
2023-04-19T20:38:23.471Z,51.92
2023-04-19T20:41:09.138Z,42.80
2023-04-19T20:43:57.019Z,55.17
2023-04-19T20:46:43.016Z,52.78
2023-04-19T20:49:28.661Z,56.05
2023-04-19T20:52:14.163Z,42.63
2023-04-19T20:54:59.646Z,50.47
2023-04-19T20:57:45.003Z,37.28
2023-04-19T21:00:30.264Z,48.80
2023-04-19T21:03:16.147Z,55.58
2023-04-19T21:06:02.085Z,51.22
2023-04-19T21:08:47.496Z,51.60
2023-04-19T21:11:32.833Z,40.03
2023-04-19T21:14:18.256Z,51.47
2023-04-19T21:17:04.224Z,52.60
2023-04-19T21:19:49.285Z,47.72
2023-04-19T21:22:34.874Z,46.72
2023-04-19T21:25:20.245Z,52.05
2023-04-19T21:28:06.102Z,50.78
2023-04-19T21:30:53.365Z,37.20
2023-04-19T21:33:38.994Z,37.97
2023-04-19T21:36:24.542Z,44.15
2023-04-19T21:39:10.297Z,36.13
2023-04-19T21:41:56.222Z,35.17
2023-04-19T21:44:41.953Z,48.83
2023-04-19T21:47:27.690Z,36.53
2023-04-19T21:50:13.301Z,44.25
2023-04-19T21:52:58.639Z,49.25
2023-04-19T21:55:48.765Z,34.92
2023-04-19T21:58:34.362Z,33.97
2023-04-19T22:01:19.993Z,38.80
2023-04-19T22:04:06.043Z,47.05
2023-04-19T22:06:52.580Z,33.05
2023-04-19T22:09:39.028Z,40.60
2023-04-19T22:12:24.664Z,35.50
2023-04-19T22:15:10.649Z,34.65
2023-04-19T22:17:57.601Z,31.67
2023-04-19T22:20:43.211Z,37.53
2023-04-19T22:23:28.617Z,44.83
2023-04-19T22:26:13.773Z,37.63
2023-04-19T22:28:59.392Z,44.63
2023-04-19T22:31:44.534Z,44.53
2023-04-19T22:34:31.084Z,41.50
2023-04-19T22:37:16.734Z,40.08
2023-04-19T22:40:02.354Z,37.88
2023-04-19T22:42:47.625Z,48.40
2023-04-19T22:45:33.086Z,51.85
2023-04-19T22:48:18.748Z,52.50
2023-04-19T22:51:04.624Z,42.92
2023-04-19T22:53:49.981Z,42.75
2023-04-19T22:56:35.817Z,40.95
2023-04-19T22:59:21.119Z,50.92
2023-04-19T23:02:06.590Z,59.95
2023-04-19T23:04:53.116Z,59.63
2023-04-19T23:07:40.106Z,61.92
2023-04-19T23:10:26.745Z,54.95
2023-04-19T23:13:12.261Z,64.03
2023-04-19T23:15:58.500Z,55.70
2023-04-19T23:18:45.194Z,65.13
2023-04-19T23:21:30.933Z,56.92
2023-04-19T23:24:17.764Z,61.92
2023-04-19T23:27:03.562Z,60.28
2023-04-19T23:29:49.384Z,50.85
2023-04-19T23:32:34.984Z,59.97
2023-04-19T23:35:20.411Z,61.50
2023-04-19T23:38:05.812Z,64.15
2023-04-19T23:40:51.398Z,62.05
2023-04-19T23:43:37.105Z,61.90
2023-04-19T23:46:22.956Z,58.95
2023-04-19T23:49:08.854Z,58.55
2023-04-19T23:51:54.810Z,63.95
2023-04-19T23:54:40.725Z,63.90
2023-04-19T23:57:26.489Z,65.20
